createdAt,value
2022-12-13T00:00:47.181Z,43.71
2022-12-13T00:03:13.749Z,43.79
2022-12-13T00:05:45.028Z,43.97
2022-12-13T00:08:11.758Z,43.61
2022-12-13T00:10:38.888Z,43.73
2022-12-13T00:13:05.538Z,43.55
2022-12-13T00:15:32.323Z,43.93
2022-12-13T00:17:58.946Z,43.57
2022-12-13T00:20:25.533Z,43.78
2022-12-13T00:22:52.304Z,43.75
2022-12-13T00:25:21.347Z,43.69
2022-12-13T00:27:47.991Z,43.80
2022-12-13T00:30:15.047Z,43.51
2022-12-13T00:32:41.580Z,43.98
2022-12-13T00:35:08.405Z,43.93
2022-12-13T00:37:34.995Z,44.11
2022-12-13T00:40:01.516Z,44.03
2022-12-13T00:42:28.053Z,44.31
2022-12-13T00:44:54.594Z,44.14
2022-12-13T00:47:22.308Z,43.98
2022-12-13T00:49:49.009Z,43.97
2022-12-13T00:52:15.602Z,43.87
2022-12-13T00:54:42.234Z,43.75
2022-12-13T00:57:08.748Z,44.08
2022-12-13T00:59:35.275Z,44.15
2022-12-13T01:02:01.809Z,43.79
2022-12-13T01:04:28.748Z,44.71
2022-12-13T01:06:55.393Z,44.46
2022-12-13T01:09:27.613Z,44.05
2022-12-13T01:11:59.176Z,44.08
2022-12-13T01:14:26.901Z,44.27
2022-12-13T01:16:56.857Z,44.28
2022-12-13T01:19:25.653Z,44.10
2022-12-13T01:21:56.701Z,43.83
2022-12-13T01:24:24.749Z,43.31
2022-12-13T01:26:53.452Z,43.87
2022-12-13T01:29:25.851Z,43.98
2022-12-13T01:31:53.433Z,44.27
2022-12-13T01:34:21.876Z,43.98
2022-12-13T01:36:58.616Z,43.71
2022-12-13T01:39:27.365Z,43.71
2022-12-13T01:42:03.392Z,43.66
2022-12-13T01:44:52.754Z,43.58
2022-12-13T01:47:50.429Z,43.42
2022-12-13T01:50:38.952Z,43.53
2022-12-13T01:53:08.395Z,43.30
2022-12-13T01:55:41.758Z,43.33
2022-12-13T01:58:09.868Z,43.98
2022-12-13T02:00:36.604Z,43.65
2022-12-13T02:03:08.452Z,43.75
2022-12-13T02:06:03.447Z,43.71
2022-12-13T02:08:30.877Z,43.46
2022-12-13T02:11:03.229Z,43.16
2022-12-13T02:13:29.807Z,43.47
2022-12-13T02:16:26.695Z,43.49
2022-12-13T02:19:32.250Z,43.11
2022-12-13T02:22:06.439Z,42.92
2022-12-13T02:24:48.958Z,43.03
2022-12-13T02:27:34.316Z,43.38
2022-12-13T02:30:20.536Z,43.61
2022-12-13T02:33:12.243Z,43.95
2022-12-13T02:36:10.583Z,43.60
2022-12-13T02:38:56.201Z,43.48
2022-12-13T02:41:34.305Z,43.09
2022-12-13T02:44:32.017Z,43.17
2022-12-13T02:47:05.426Z,43.59
2022-12-13T02:49:44.730Z,43.37
2022-12-13T02:52:13.442Z,43.00
2022-12-13T02:54:49.050Z,43.00
2022-12-13T02:57:34.277Z,43.45
2022-12-13T03:00:10.640Z,43.22
2022-12-13T03:02:50.024Z,43.54
2022-12-13T03:05:57.294Z,43.40
2022-12-13T03:08:31.010Z,44.10
2022-12-13T03:11:14.063Z,43.43
2022-12-13T03:14:00.002Z,43.68
2022-12-13T03:16:34.374Z,43.87
2022-12-13T03:19:03.996Z,44.57
2022-12-13T03:21:45.540Z,44.54
2022-12-13T03:24:16.250Z,44.16
2022-12-13T03:26:44.232Z,44.18
2022-12-13T03:29:11.230Z,44.34
2022-12-13T03:31:37.865Z,44.34
2022-12-13T03:34:04.919Z,44.23
2022-12-13T03:36:32.261Z,44.35
2022-12-13T03:38:59.775Z,44.86
2022-12-13T03:41:31.692Z,44.66
2022-12-13T03:44:05.314Z,44.55
2022-12-13T03:46:32.108Z,45.10
2022-12-13T03:48:58.976Z,45.10
2022-12-13T03:51:25.704Z,45.41
2022-12-13T03:53:52.240Z,44.88
2022-12-13T03:56:18.842Z,45.62
2022-12-13T03:58:45.527Z,45.49
2022-12-13T04:01:14.850Z,45.63
2022-12-13T04:03:43.467Z,45.94
2022-12-13T04:06:10.517Z,46.68
2022-12-13T04:08:38.450Z,46.23
2022-12-13T04:11:25.491Z,46.83
2022-12-13T04:13:53.495Z,46.68
2022-12-13T04:16:21.212Z,46.53
2022-12-13T04:18:48.010Z,46.52
2022-12-13T04:21:14.653Z,46.40
2022-12-13T04:23:41.251Z,46.00
2022-12-13T04:26:08.873Z,45.90
2022-12-13T04:28:35.401Z,46.09
2022-12-13T04:31:02.468Z,45.73
2022-12-13T04:33:29.419Z,45.32
2022-12-13T04:35:55.994Z,44.97
2022-12-13T04:38:22.777Z,45.40
2022-12-13T04:40:49.377Z,45.35
2022-12-13T04:43:16.040Z,45.06
2022-12-13T04:45:42.720Z,45.20
2022-12-13T04:48:09.338Z,45.44
2022-12-13T04:50:36.459Z,45.97
2022-12-13T04:53:03.562Z,45.64
2022-12-13T04:55:30.167Z,45.74
2022-12-13T04:57:56.715Z,45.36
2022-12-13T05:00:23.489Z,45.55
2022-12-13T05:02:50.821Z,44.80
2022-12-13T05:05:18.148Z,44.67
2022-12-13T05:07:45.375Z,44.92
2022-12-13T05:10:12.903Z,44.93
2022-12-13T05:12:59.770Z,45.32
2022-12-13T05:15:27.716Z,45.66
2022-12-13T05:17:54.286Z,46.21
2022-12-13T05:20:21.268Z,46.08
2022-12-13T05:22:47.966Z,46.81
2022-12-13T05:25:15.110Z,46.34
2022-12-13T05:27:41.870Z,45.70
2022-12-13T05:30:09.120Z,46.39
2022-12-13T05:32:43.846Z,46.83
2022-12-13T05:35:13.241Z,47.38
2022-12-13T05:37:40.273Z,46.92
2022-12-13T05:40:08.192Z,46.58
2022-12-13T05:42:34.732Z,45.84
2022-12-13T05:45:01.276Z,46.47
2022-12-13T05:47:28.926Z,45.94
2022-12-13T05:49:55.467Z,46.19
2022-12-13T05:52:30.744Z,46.45
2022-12-13T05:55:00.953Z,46.38
2022-12-13T05:57:28.044Z,46.32
2022-12-13T05:59:54.640Z,45.99
2022-12-13T06:02:22.132Z,45.71
2022-12-13T06:04:49.256Z,45.98
2022-12-13T06:07:16.212Z,46.00
2022-12-13T06:09:43.014Z,46.84
2022-12-13T06:12:31.411Z,47.10
2022-12-13T06:15:01.171Z,46.99
2022-12-13T06:17:37.641Z,47.78
2022-12-13T06:20:22.871Z,47.71
2022-12-13T06:22:52.036Z,47.25
2022-12-13T06:25:30.460Z,47.31
2022-12-13T06:28:01.100Z,47.02
2022-12-13T06:30:29.254Z,47.68
2022-12-13T06:32:56.045Z,47.97
2022-12-13T06:35:27.399Z,47.01
2022-12-13T06:38:01.886Z,47.13
2022-12-13T06:40:31.195Z,45.91
2022-12-13T06:42:57.821Z,45.71
2022-12-13T06:45:25.098Z,45.63
2022-12-13T06:47:51.707Z,45.44
2022-12-13T06:50:18.257Z,45.01
2022-12-13T06:52:46.496Z,44.87
2022-12-13T06:55:14.172Z,45.22
2022-12-13T06:57:41.635Z,44.81
2022-12-13T07:00:09.674Z,44.71
2022-12-13T07:02:38.031Z,44.59
2022-12-13T07:05:05.405Z,44.78
2022-12-13T07:07:32.006Z,44.63
2022-12-13T07:09:58.675Z,44.86
2022-12-13T07:12:25.280Z,45.44
2022-12-13T07:14:52.375Z,44.80
2022-12-13T07:17:33.118Z,44.76
2022-12-13T07:20:02.107Z,44.65
2022-12-13T07:22:29.215Z,44.69
2022-12-13T07:25:03.125Z,44.56
2022-12-13T07:27:29.714Z,44.19
2022-12-13T07:29:56.332Z,43.92
2022-12-13T07:32:22.846Z,44.14
2022-12-13T07:34:49.469Z,44.16
2022-12-13T07:37:30.686Z,44.07
2022-12-13T07:40:03.243Z,43.99
2022-12-13T07:42:30.770Z,44.44
2022-12-13T07:44:57.360Z,44.86
2022-12-13T07:47:25.809Z,44.83
2022-12-13T07:49:52.815Z,44.78
2022-12-13T07:52:19.344Z,45.07
2022-12-13T07:54:46.350Z,45.09
2022-12-13T07:57:13.336Z,44.80
2022-12-13T07:59:39.913Z,45.01
2022-12-13T08:02:07.140Z,44.86
2022-12-13T08:04:37.700Z,45.57
2022-12-13T08:07:11.631Z,46.71
2022-12-13T08:09:38.332Z,47.32
2022-12-13T08:12:05.370Z,47.25
2022-12-13T08:14:32.224Z,47.24
2022-12-13T08:16:59.006Z,45.57
2022-12-13T08:19:25.890Z,45.89
2022-12-13T08:21:55.010Z,45.87
2022-12-13T08:24:27.770Z,45.41
2022-12-13T08:26:55.608Z,44.65
2022-12-13T08:29:34.156Z,42.05
2022-12-13T08:32:07.694Z,41.46
2022-12-13T08:34:34.549Z,40.62
2022-12-13T08:37:02.751Z,40.86
2022-12-13T08:39:34.074Z,40.91
2022-12-13T08:42:17.149Z,39.41
2022-12-13T08:44:50.110Z,39.53
2022-12-13T08:47:23.015Z,40.01
2022-12-13T08:49:53.160Z,38.95
2022-12-13T08:52:21.650Z,39.04
2022-12-13T08:54:48.464Z,39.67
2022-12-13T08:57:15.646Z,39.43
2022-12-13T08:59:42.533Z,38.46
2022-12-13T09:02:13.473Z,38.44
2022-12-13T09:04:40.185Z,37.85
2022-12-13T09:07:07.209Z,38.46
2022-12-13T09:09:33.824Z,37.96
2022-12-13T09:12:01.110Z,39.00
2022-12-13T09:14:37.133Z,37.98
2022-12-13T09:17:14.794Z,38.24
2022-12-13T09:19:51.292Z,38.26
2022-12-13T09:22:33.168Z,39.08
2022-12-13T09:25:02.714Z,40.45
2022-12-13T09:27:31.172Z,41.45
2022-12-13T09:30:08.088Z,41.28
2022-12-13T09:32:34.739Z,41.93
2022-12-13T09:35:01.886Z,42.57
2022-12-13T09:37:29.644Z,43.15
2022-12-13T09:39:56.291Z,43.16
2022-12-13T09:42:30.739Z,43.77
2022-12-13T09:45:22.297Z,43.39
2022-12-13T09:47:52.357Z,42.25
2022-12-13T09:50:37.813Z,41.68
2022-12-13T09:53:12.208Z,40.35
2022-12-13T09:55:52.717Z,39.87
2022-12-13T09:58:28.287Z,39.72
2022-12-13T10:00:56.482Z,38.73
2022-12-13T10:03:25.153Z,38.20
2022-12-13T10:06:01.377Z,37.68
2022-12-13T10:08:40.823Z,36.91
2022-12-13T10:11:07.411Z,36.59
2022-12-13T10:13:42.669Z,36.41
2022-12-13T10:16:36.209Z,36.13
2022-12-13T10:19:27.986Z,36.00
2022-12-13T10:22:02.227Z,36.49
2022-12-13T10:24:47.414Z,35.81
2022-12-13T10:27:17.154Z,36.03
2022-12-13T10:30:13.185Z,35.94
2022-12-13T10:32:53.105Z,36.02
2022-12-13T10:35:40.795Z,35.92
2022-12-13T10:38:13.202Z,36.17
2022-12-13T10:40:46.558Z,35.71
2022-12-13T10:43:26.269Z,35.57
2022-12-13T10:45:57.712Z,36.27
2022-12-13T10:48:39.440Z,36.34
2022-12-13T10:51:09.103Z,36.45
2022-12-13T10:53:47.454Z,36.91
2022-12-13T10:56:22.763Z,38.26
2022-12-13T10:59:13.356Z,38.86
2022-12-13T11:01:44.078Z,39.82
2022-12-13T11:04:32.459Z,40.19
2022-12-13T11:07:01.882Z,40.62
2022-12-13T11:09:38.699Z,40.93
2022-12-13T11:12:16.322Z,40.96
2022-12-13T11:14:55.482Z,41.89
2022-12-13T11:17:26.423Z,41.42
2022-12-13T11:20:00.436Z,41.21
2022-12-13T11:22:29.617Z,41.75
2022-12-13T11:25:07.797Z,41.32
2022-12-13T11:27:59.880Z,42.37
2022-12-13T11:30:35.537Z,41.81
2022-12-13T11:33:08.464Z,42.74
2022-12-13T11:35:43.737Z,42.89
2022-12-13T11:38:29.542Z,43.26
2022-12-13T11:41:11.195Z,43.00
2022-12-13T11:43:46.916Z,43.08
2022-12-13T11:46:20.777Z,43.37
2022-12-13T11:48:53.281Z,44.58
2022-12-13T11:51:36.111Z,44.37
2022-12-13T11:54:24.118Z,43.42
2022-12-13T11:57:00.299Z,43.62
2022-12-13T11:59:39.963Z,43.72
2022-12-13T12:02:21.685Z,43.67
2022-12-13T12:05:00.468Z,44.29
2022-12-13T12:07:58.387Z,44.25
2022-12-13T12:10:49.437Z,43.21
2022-12-13T12:13:22.198Z,43.39
2022-12-13T12:16:22.982Z,43.49
2022-12-13T12:18:51.509Z,43.31
2022-12-13T12:21:49.558Z,43.69
2022-12-13T12:25:10.671Z,43.04
2022-12-13T12:27:55.008Z,44.44
2022-12-13T12:30:24.771Z,44.26
2022-12-13T12:33:13.936Z,43.98
2022-12-13T12:35:54.503Z,44.02
2022-12-13T12:38:27.321Z,44.24
2022-12-13T12:41:16.745Z,45.31
2022-12-13T12:43:45.129Z,45.25
2022-12-13T12:47:08.959Z,45.60
2022-12-13T12:49:45.991Z,45.04
2022-12-13T12:52:18.343Z,45.48
2022-12-13T12:55:03.021Z,46.09
2022-12-13T12:57:44.949Z,45.33
2022-12-13T13:00:17.853Z,46.09
2022-12-13T13:02:47.334Z,45.96
2022-12-13T13:05:42.586Z,45.83
2022-12-13T13:08:09.050Z,46.16
2022-12-13T13:10:41.134Z,45.73
2022-12-13T13:13:36.806Z,47.02
2022-12-13T13:16:28.681Z,46.96
2022-12-13T13:18:57.041Z,47.11
2022-12-13T13:21:23.921Z,47.00
2022-12-13T13:24:08.957Z,46.30
2022-12-13T13:26:44.753Z,46.60
2022-12-13T13:29:27.731Z,47.92
2022-12-13T13:32:28.799Z,46.95
2022-12-13T13:35:32.208Z,47.34
2022-12-13T13:38:05.074Z,47.31
2022-12-13T13:40:39.410Z,46.98
2022-12-13T13:43:08.725Z,46.81
2022-12-13T13:46:09.247Z,46.35
2022-12-13T13:48:40.280Z,45.29
2022-12-13T13:51:41.418Z,45.99
2022-12-13T13:54:38.125Z,46.01
2022-12-13T13:57:28.917Z,45.29
2022-12-13T14:00:15.097Z,45.14
2022-12-13T14:03:22.118Z,44.68
2022-12-13T14:06:15.816Z,44.82
2022-12-13T14:09:04.430Z,44.43
2022-12-13T14:11:43.279Z,44.07
2022-12-13T14:14:31.719Z,43.80
2022-12-13T14:17:08.066Z,43.89
2022-12-13T14:19:41.405Z,43.94
2022-12-13T14:22:13.765Z,43.66
2022-12-13T14:25:23.384Z,43.73
2022-12-13T14:28:15.244Z,43.69
2022-12-13T14:30:47.844Z,43.73
2022-12-13T14:33:26.415Z,44.32
2022-12-13T14:35:56.593Z,44.91
2022-12-13T14:38:31.099Z,44.69
2022-12-13T14:41:02.757Z,44.69
2022-12-13T14:43:32.338Z,44.89
2022-12-13T14:46:05.013Z,45.06
2022-12-13T14:48:37.406Z,46.23
2022-12-13T14:51:04.761Z,46.27
2022-12-13T14:53:39.171Z,46.37
2022-12-13T14:56:27.440Z,47.15
2022-12-13T14:58:57.648Z,47.37
2022-12-13T15:01:35.920Z,47.96
2022-12-13T15:04:21.304Z,48.08
2022-12-13T15:06:56.950Z,47.27
2022-12-13T15:09:24.914Z,47.57
2022-12-13T15:12:01.361Z,47.47
2022-12-13T15:14:45.695Z,47.66
2022-12-13T15:17:27.377Z,47.65
2022-12-13T15:19:57.057Z,47.63
2022-12-13T15:22:29.743Z,48.00
2022-12-13T15:25:03.080Z,47.82
2022-12-13T15:27:33.791Z,48.86
2022-12-13T15:30:00.574Z,49.58
2022-12-13T15:32:27.181Z,49.09
2022-12-13T15:34:54.482Z,49.77
2022-12-13T15:37:39.701Z,50.74
2022-12-13T15:40:08.726Z,50.31
2022-12-13T15:42:38.391Z,49.78
2022-12-13T15:45:19.835Z,49.22
2022-12-13T15:47:47.584Z,48.71
2022-12-13T15:50:34.963Z,48.44
2022-12-13T15:53:05.899Z,48.54
2022-12-13T15:55:35.402Z,49.08
2022-12-13T15:58:03.173Z,49.14
2022-12-13T16:00:35.067Z,48.50
2022-12-13T16:03:08.473Z,48.90
2022-12-13T16:05:40.507Z,48.01
2022-12-13T16:08:16.109Z,48.16
2022-12-13T16:10:48.339Z,48.33
2022-12-13T16:13:26.344Z,48.20
2022-12-13T16:15:59.999Z,48.30
2022-12-13T16:18:46.463Z,48.52
2022-12-13T16:21:14.183Z,48.99
2022-12-13T16:23:40.783Z,49.39
2022-12-13T16:26:22.036Z,49.49
2022-12-13T16:28:48.662Z,49.46
2022-12-13T16:31:22.540Z,49.73
2022-12-13T16:33:49.541Z,49.37
2022-12-13T16:36:17.056Z,48.66
2022-12-13T16:38:43.713Z,49.17
2022-12-13T16:41:10.579Z,48.66
2022-12-13T16:43:40.448Z,49.07
2022-12-13T16:47:10.032Z,49.46
2022-12-13T16:48:54.623Z,49.23
2022-12-13T16:51:21.858Z,49.96
2022-12-13T16:53:48.600Z,50.11
2022-12-13T16:56:21.305Z,49.41
2022-12-13T16:58:50.310Z,48.90
2022-12-13T17:01:22.742Z,48.56
2022-12-13T17:03:49.571Z,48.13
2022-12-13T17:06:22.476Z,48.51
2022-12-13T17:08:49.199Z,47.96
2022-12-13T17:11:18.334Z,47.87
2022-12-13T17:13:47.551Z,47.68
2022-12-13T17:16:14.329Z,47.82
2022-12-13T17:18:41.767Z,47.37
2022-12-13T17:21:09.766Z,48.00
2022-12-13T17:23:36.627Z,48.68
2022-12-13T17:26:08.730Z,48.70
2022-12-13T17:28:35.578Z,48.49
2022-12-13T17:31:07.685Z,48.55
2022-12-13T17:33:34.964Z,48.42
2022-12-13T17:36:03.747Z,47.95
2022-12-13T17:38:30.737Z,48.46
2022-12-13T17:40:57.319Z,48.74
2022-12-13T17:43:34.418Z,49.71
2022-12-13T17:46:07.540Z,50.17
2022-12-13T17:48:40.442Z,50.58
2022-12-13T17:51:09.370Z,50.77
2022-12-13T17:53:36.895Z,51.61
2022-12-13T17:56:06.390Z,52.11
2022-12-13T17:58:33.821Z,52.36
2022-12-13T18:01:14.475Z,53.89
2022-12-13T18:03:41.285Z,54.15
2022-12-13T18:06:08.172Z,54.44
2022-12-13T18:08:36.456Z,53.53
2022-12-13T18:13:54.454Z,52.50
2022-12-13T18:16:23.605Z,53.27
2022-12-13T18:18:54.955Z,51.51
2022-12-13T18:21:24.023Z,50.90
2022-12-13T18:23:55.491Z,49.77
2022-12-13T18:26:24.455Z,49.81
2022-12-13T18:28:51.744Z,49.76
2022-12-13T18:31:22.685Z,49.03
2022-12-13T18:33:51.453Z,49.54
2022-12-13T18:36:19.081Z,49.40
2022-12-13T18:38:46.120Z,49.22
2022-12-13T18:41:19.192Z,49.51
2022-12-13T18:43:47.591Z,49.55
2022-12-13T18:46:15.268Z,49.82
2022-12-13T18:48:42.451Z,49.71
2022-12-13T18:51:10.374Z,49.70
2022-12-13T18:53:39.108Z,50.40
2022-12-13T18:56:12.897Z,50.36
2022-12-13T18:58:44.532Z,50.60
2022-12-13T19:01:13.268Z,50.75
2022-12-13T19:03:40.101Z,51.35
2022-12-13T19:06:07.489Z,51.05
2022-12-13T19:08:36.708Z,51.92
2022-12-13T19:11:03.956Z,51.73
2022-12-13T19:13:31.907Z,50.58
2022-12-13T19:16:05.633Z,50.94
2022-12-13T19:18:32.384Z,49.92
2022-12-13T19:20:59.052Z,50.78
2022-12-13T19:23:26.397Z,51.24
2022-12-13T19:25:53.189Z,51.13
2022-12-13T19:28:20.064Z,50.39
2022-12-13T19:30:47.576Z,49.66
2022-12-13T19:33:14.739Z,49.27
2022-12-13T19:35:44.998Z,48.66
2022-12-13T19:38:12.220Z,49.73
2022-12-13T19:40:40.051Z,49.62
2022-12-13T19:43:06.879Z,49.74
2022-12-13T19:45:34.022Z,50.96
2022-12-13T19:48:00.633Z,51.65
2022-12-13T19:50:28.777Z,52.07
2022-12-13T19:52:55.638Z,52.58
2022-12-13T19:55:22.175Z,52.83
2022-12-13T19:57:48.786Z,52.72
2022-12-13T20:00:15.999Z,53.06
2022-12-13T20:02:42.679Z,53.00
2022-12-13T20:05:09.504Z,52.10
2022-12-13T20:07:36.240Z,51.34
2022-12-13T20:10:05.228Z,50.67
2022-12-13T20:12:35.679Z,51.11
2022-12-13T20:15:08.117Z,50.50
2022-12-13T20:17:35.497Z,49.51
2022-12-13T20:20:02.693Z,50.12
2022-12-13T20:22:29.739Z,49.99
2022-12-13T20:24:56.327Z,49.55
2022-12-13T20:27:23.010Z,48.92
2022-12-13T20:29:50.487Z,49.40
2022-12-13T20:32:17.127Z,49.81
2022-12-13T20:34:44.395Z,49.17
2022-12-13T20:37:10.930Z,49.17
2022-12-13T20:39:37.827Z,48.79
2022-12-13T20:42:04.421Z,49.24
2022-12-13T20:44:32.502Z,49.55
2022-12-13T20:46:59.138Z,49.23
2022-12-13T20:49:26.075Z,50.28
2022-12-13T20:51:52.930Z,49.43
2022-12-13T20:54:19.472Z,49.18
2022-12-13T20:56:46.007Z,48.80
2022-12-13T20:59:13.209Z,49.05
2022-12-13T21:01:41.438Z,48.70
2022-12-13T21:04:09.400Z,48.50
2022-12-13T21:06:38.537Z,48.08
2022-12-13T21:09:06.443Z,48.42
2022-12-13T21:11:35.025Z,48.11
2022-12-13T21:14:09.220Z,47.82
2022-12-13T21:16:39.736Z,48.26
2022-12-13T21:19:08.852Z,47.98
2022-12-13T21:21:35.893Z,47.83
2022-12-13T21:24:03.486Z,47.52
2022-12-13T21:26:35.253Z,47.76
2022-12-13T21:29:06.470Z,47.30
2022-12-13T21:31:34.988Z,47.30
2022-12-13T21:34:02.760Z,48.03
2022-12-13T21:36:33.720Z,48.84
2022-12-13T21:39:04.115Z,48.50
2022-12-13T21:41:30.925Z,48.23
2022-12-13T21:43:57.571Z,47.99
2022-12-13T21:46:47.442Z,47.35
2022-12-13T21:49:14.919Z,47.45
2022-12-13T21:51:47.644Z,46.75
2022-12-13T21:54:14.783Z,46.74
2022-12-13T21:57:00.180Z,46.86
2022-12-13T21:59:28.571Z,47.24
2022-12-13T22:02:12.525Z,46.63
2022-12-13T22:04:44.259Z,46.51
2022-12-13T22:07:13.558Z,46.03
2022-12-13T22:09:40.675Z,46.23
2022-12-13T22:12:10.059Z,45.79
2022-12-13T22:14:37.479Z,45.35
2022-12-13T22:17:04.175Z,45.06
2022-12-13T22:19:30.722Z,44.90
2022-12-13T22:21:57.364Z,45.22
2022-12-13T22:24:23.871Z,45.81
2022-12-13T22:26:50.555Z,47.23
2022-12-13T22:29:17.116Z,47.03
2022-12-13T22:31:43.886Z,47.60
2022-12-13T22:34:15.552Z,46.90
2022-12-13T22:36:42.368Z,46.06
2022-12-13T22:39:16.247Z,46.03
2022-12-13T22:41:42.911Z,45.52
2022-12-13T22:44:11.266Z,45.50
2022-12-13T22:46:38.435Z,45.44
2022-12-13T22:49:05.565Z,45.61
2022-12-13T22:51:32.348Z,45.53
2022-12-13T22:53:58.898Z,47.08
2022-12-13T22:56:25.842Z,48.25
2022-12-13T22:58:54.427Z,48.32
2022-12-13T23:01:27.274Z,49.13
2022-12-13T23:03:55.004Z,48.42
2022-12-13T23:06:24.108Z,48.43
2022-12-13T23:08:56.448Z,48.08
2022-12-13T23:11:42.577Z,48.79
2022-12-13T23:14:12.295Z,48.19
2022-12-13T23:16:39.421Z,48.10
2022-12-13T23:19:40.292Z,48.16
2022-12-13T23:21:56.812Z,47.77
2022-12-13T23:24:23.438Z,47.36
2022-12-13T23:26:49.993Z,47.77
2022-12-13T23:29:17.046Z,47.82
2022-12-13T23:31:44.868Z,47.94
2022-12-13T23:34:15.892Z,48.25
2022-12-13T23:36:43.262Z,48.54
2022-12-13T23:39:11.267Z,48.90
2022-12-13T23:41:38.143Z,48.79
2022-12-13T23:44:04.872Z,48.76
2022-12-13T23:46:34.348Z,48.73
2022-12-13T23:49:04.476Z,48.52
2022-12-13T23:51:31.988Z,48.06
2022-12-13T23:53:59.045Z,48.27
2022-12-13T23:56:25.912Z,47.74
2022-12-13T23:58:52.592Z,47.57
